createdAt,value
2023-11-10T00:01:44.372Z,7.52
2023-11-10T00:04:16.767Z,7.60
2023-11-10T00:06:48.604Z,7.60
2023-11-10T00:09:21.090Z,7.60
2023-11-10T00:11:53.495Z,7.62
2023-11-10T00:14:31.138Z,7.59
2023-11-10T00:17:11.350Z,7.71
2023-11-10T00:19:45.136Z,7.72
2023-11-10T00:22:17.206Z,7.71
2023-11-10T00:24:49.068Z,7.86
2023-11-10T00:27:20.874Z,7.74
2023-11-10T00:29:53.219Z,7.86
2023-11-10T00:32:25.792Z,7.91
2023-11-10T00:34:57.462Z,8.02
2023-11-10T00:37:29.071Z,7.90
2023-11-10T00:40:02.471Z,7.98
2023-11-10T00:42:34.563Z,7.86
2023-11-10T00:45:07.632Z,7.89
2023-11-10T00:47:39.317Z,7.86
2023-11-10T00:50:13.153Z,7.90
2023-11-10T00:52:45.073Z,7.98
2023-11-10T00:55:17.782Z,8.01
2023-11-10T00:57:49.478Z,7.86
2023-11-10T01:00:22.188Z,7.88
2023-11-10T01:02:56.153Z,7.93
2023-11-10T01:05:28.208Z,7.87
2023-11-10T01:07:59.844Z,7.95
2023-11-10T01:10:33.571Z,7.83
2023-11-10T01:13:06.692Z,7.70
2023-11-10T01:15:38.425Z,7.65
2023-11-10T01:18:10.415Z,7.60
2023-11-10T01:20:42.151Z,7.58
2023-11-10T01:23:13.822Z,7.50
2023-11-10T01:25:45.402Z,7.46
2023-11-10T01:28:16.993Z,7.49
2023-11-10T01:30:49.546Z,7.49
2023-11-10T01:33:21.687Z,7.51
2023-11-10T01:35:53.466Z,7.50
2023-11-10T01:38:25.025Z,7.43
2023-11-10T01:40:57.249Z,7.44
2023-11-10T01:43:30.545Z,7.36
2023-11-10T01:46:02.147Z,7.41
2023-11-10T01:48:34.496Z,7.49
2023-11-10T01:51:06.762Z,7.39
2023-11-10T01:53:38.413Z,7.38
2023-11-10T01:56:10.678Z,7.50
2023-11-10T01:58:42.137Z,7.55
2023-11-10T02:01:13.880Z,7.48
2023-11-10T02:03:46.437Z,7.42
2023-11-10T02:06:18.137Z,7.33
2023-11-10T02:08:49.703Z,7.27
2023-11-10T02:11:24.418Z,7.24
2023-11-10T02:14:05.827Z,7.18
2023-11-10T02:16:40.374Z,7.11
2023-11-10T02:19:17.903Z,7.07
2023-11-10T02:21:49.573Z,7.01
2023-11-10T02:24:23.185Z,7.04
2023-11-10T02:26:54.857Z,7.02
2023-11-10T02:29:26.531Z,6.97
2023-11-10T02:31:58.014Z,6.88
2023-11-10T02:34:29.711Z,6.88
2023-11-10T02:37:01.523Z,6.94
2023-11-10T02:39:33.200Z,6.93
2023-11-10T02:42:05.726Z,6.89
2023-11-10T02:44:37.936Z,6.80
2023-11-10T02:47:10.450Z,6.80
2023-11-10T02:49:42.812Z,6.70
2023-11-10T02:52:14.407Z,6.82
2023-11-10T02:54:46.326Z,7.01
2023-11-10T02:57:18.119Z,7.00
2023-11-10T02:59:49.629Z,6.93
2023-11-10T03:02:21.666Z,6.93
2023-11-10T03:04:53.954Z,6.87
2023-11-10T03:07:25.871Z,7.02
2023-11-10T03:09:59.463Z,7.03
2023-11-10T03:12:32.354Z,7.47
2023-11-10T03:15:04.801Z,7.71
2023-11-10T03:17:36.569Z,7.57
2023-11-10T03:20:10.694Z,7.47
2023-11-10T03:22:42.937Z,7.46
2023-11-10T03:25:15.252Z,7.36
2023-11-10T03:27:47.168Z,7.29
2023-11-10T03:30:19.425Z,7.20
2023-11-10T03:32:51.255Z,7.13
2023-11-10T03:35:23.615Z,7.06
2023-11-10T03:37:55.369Z,7.01
2023-11-10T03:40:27.504Z,7.10
2023-11-10T03:42:58.978Z,7.17
2023-11-10T03:45:30.726Z,7.16
2023-11-10T03:48:02.449Z,7.17
2023-11-10T03:50:34.078Z,7.14
2023-11-10T03:53:05.614Z,7.16
2023-11-10T03:55:37.213Z,7.14
2023-11-10T03:58:10.288Z,7.10
2023-11-10T04:00:48.628Z,7.14
2023-11-10T04:03:21.200Z,7.19
2023-11-10T04:05:52.930Z,7.20
2023-11-10T04:08:24.562Z,7.19
2023-11-10T04:10:56.310Z,7.12
2023-11-10T04:13:27.795Z,7.11
2023-11-10T04:15:59.734Z,7.06
2023-11-10T04:18:31.912Z,7.07
2023-11-10T04:21:03.586Z,7.11
2023-11-10T04:23:35.852Z,7.10
2023-11-10T04:26:08.171Z,7.14
2023-11-10T04:28:40.766Z,7.05
2023-11-10T04:31:12.683Z,7.08
2023-11-10T04:33:45.299Z,7.07
2023-11-10T04:36:17.455Z,7.16
2023-11-10T04:38:49.681Z,7.23
2023-11-10T04:41:25.583Z,7.13
2023-11-10T04:43:57.134Z,7.19
2023-11-10T04:46:28.603Z,7.09
2023-11-10T04:49:00.192Z,7.16
2023-11-10T04:51:32.695Z,7.16
2023-11-10T04:54:04.540Z,7.08
2023-11-10T04:56:45.380Z,7.14
2023-11-10T04:59:17.208Z,7.20
2023-11-10T05:01:50.344Z,7.20
2023-11-10T05:04:22.089Z,7.32
2023-11-10T05:06:54.216Z,7.37
2023-11-10T05:09:25.922Z,7.33
2023-11-10T05:11:57.911Z,7.32
2023-11-10T05:14:29.635Z,7.27
2023-11-10T05:17:01.647Z,7.22
2023-11-10T05:19:33.828Z,7.27
2023-11-10T05:22:06.767Z,7.31
2023-11-10T05:24:39.556Z,7.40
2023-11-10T05:27:11.382Z,7.35
2023-11-10T05:29:42.867Z,7.35
2023-11-10T05:32:15.788Z,7.47
2023-11-10T05:34:47.363Z,7.55
2023-11-10T05:37:19.735Z,7.56
2023-11-10T05:39:52.150Z,7.59
2023-11-10T05:42:24.803Z,7.51
2023-11-10T05:44:56.326Z,7.52
2023-11-10T05:47:28.603Z,7.63
2023-11-10T05:50:00.494Z,7.60
2023-11-10T05:52:32.786Z,7.63
2023-11-10T05:55:04.753Z,7.64
2023-11-10T05:57:37.816Z,7.56
2023-11-10T06:00:11.570Z,7.66
2023-11-10T06:02:44.469Z,7.74
2023-11-10T06:05:16.949Z,7.77
2023-11-10T06:07:48.902Z,8.00
2023-11-10T06:10:22.360Z,8.21
2023-11-10T06:12:54.206Z,8.19
2023-11-10T06:15:25.854Z,8.29
2023-11-10T06:17:57.855Z,8.51
2023-11-10T06:20:29.915Z,8.46
2023-11-10T06:23:01.504Z,8.56
2023-11-10T06:25:33.117Z,8.56
2023-11-10T06:28:05.007Z,8.47
2023-11-10T06:30:36.634Z,8.29
2023-11-10T06:33:08.720Z,8.15
2023-11-10T06:35:40.329Z,8.18
2023-11-10T06:38:12.233Z,8.27
2023-11-10T06:40:43.872Z,8.26
2023-11-10T06:43:16.138Z,8.14
2023-11-10T06:45:47.763Z,8.10
2023-11-10T06:48:20.183Z,7.97
2023-11-10T06:50:51.739Z,7.95
2023-11-10T06:53:23.618Z,7.87
2023-11-10T06:55:55.101Z,7.79
2023-11-10T06:58:26.954Z,7.84
2023-11-10T07:00:59.687Z,7.81
2023-11-10T07:03:31.895Z,7.88
2023-11-10T07:06:06.095Z,7.86
2023-11-10T07:08:39.619Z,7.91
2023-11-10T07:11:11.751Z,7.96
2023-11-10T07:13:43.372Z,7.88
2023-11-10T07:16:15.740Z,7.92
2023-11-10T07:18:47.791Z,7.93
2023-11-10T07:21:19.987Z,7.82
2023-11-10T07:23:52.931Z,7.88
2023-11-10T07:26:24.873Z,7.86
2023-11-10T07:28:56.474Z,7.94
2023-11-10T07:31:28.026Z,8.05
2023-11-10T07:34:00.348Z,8.10
2023-11-10T07:36:32.079Z,8.24
2023-11-10T07:39:03.791Z,8.22
2023-11-10T07:41:36.207Z,8.27
2023-11-10T07:44:11.013Z,8.32
2023-11-10T07:46:43.095Z,8.18
2023-11-10T07:49:15.016Z,8.37
2023-11-10T07:51:46.589Z,8.51
2023-11-10T07:54:19.010Z,8.49
2023-11-10T07:56:52.072Z,8.46
2023-11-10T07:59:23.686Z,8.65
2023-11-10T08:01:55.304Z,8.67
2023-11-10T08:04:27.354Z,8.74
2023-11-10T08:06:59.111Z,8.74
2023-11-10T08:09:30.834Z,8.61
2023-11-10T08:12:02.324Z,8.62
2023-11-10T08:14:34.223Z,8.41
2023-11-10T08:17:07.847Z,8.41
2023-11-10T08:19:41.099Z,8.46
2023-11-10T08:22:12.971Z,8.54
2023-11-10T08:24:44.793Z,8.74
2023-11-10T08:27:16.486Z,8.78
2023-11-10T08:29:48.554Z,9.20
2023-11-10T08:32:20.341Z,9.54
2023-11-10T08:34:52.843Z,9.74
2023-11-10T08:37:24.725Z,10.07
2023-11-10T08:39:56.617Z,10.20
2023-11-10T08:42:28.376Z,10.64
2023-11-10T08:45:00.368Z,11.02
2023-11-10T08:47:32.949Z,10.79
2023-11-10T08:50:06.469Z,12.68
2023-11-10T08:52:41.903Z,13.16
2023-11-10T08:55:14.882Z,12.15
2023-11-10T08:57:47.698Z,11.77
2023-11-10T09:00:20.342Z,11.12
2023-11-10T09:02:53.990Z,11.57
2023-11-10T09:05:27.125Z,11.56
2023-11-10T09:07:58.789Z,11.79
2023-11-10T09:10:30.579Z,11.51
2023-11-10T09:13:02.678Z,11.62
2023-11-10T09:15:35.247Z,11.81
2023-11-10T09:18:07.901Z,12.51
2023-11-10T09:20:40.363Z,13.11
2023-11-10T09:23:12.649Z,14.48
2023-11-10T09:25:45.449Z,14.11
2023-11-10T09:28:17.592Z,14.21
2023-11-10T09:30:49.646Z,13.53
2023-11-10T09:33:23.218Z,12.70
2023-11-10T09:35:55.324Z,12.19
2023-11-10T09:38:27.351Z,11.77
2023-11-10T09:40:59.511Z,11.24
2023-11-10T09:43:33.522Z,11.58
2023-11-10T09:46:07.095Z,11.58
2023-11-10T09:48:39.805Z,11.67
2023-11-10T09:51:13.277Z,11.13
2023-11-10T09:53:45.787Z,10.89
2023-11-10T09:56:18.045Z,10.92
2023-11-10T09:58:51.709Z,10.46
2023-11-10T10:01:23.954Z,10.37
2023-11-10T10:03:55.871Z,10.17
2023-11-10T10:06:28.584Z,10.34
2023-11-10T10:09:05.631Z,10.57
2023-11-10T10:11:38.305Z,10.46
2023-11-10T10:14:10.385Z,10.47
2023-11-10T10:16:52.171Z,10.48
2023-11-10T10:19:29.758Z,10.83
2023-11-10T10:22:01.895Z,11.15
2023-11-10T10:24:33.487Z,11.67
2023-11-10T10:27:05.276Z,11.55
2023-11-10T10:29:38.034Z,11.80
2023-11-10T10:32:10.596Z,12.11
2023-11-10T10:34:44.348Z,11.83
2023-11-10T10:37:23.229Z,11.59
2023-11-10T10:40:01.027Z,11.26
2023-11-10T10:42:36.297Z,10.90
2023-11-10T10:45:11.440Z,10.79
2023-11-10T10:47:45.440Z,10.69
2023-11-10T10:50:17.919Z,10.73
2023-11-10T10:52:50.557Z,10.52
2023-11-10T10:55:24.330Z,10.57
2023-11-10T10:58:01.948Z,10.39
2023-11-10T11:00:34.015Z,10.34
2023-11-10T11:03:24.975Z,10.48
2023-11-10T11:06:14.047Z,10.33
2023-11-10T11:09:07.603Z,10.31
2023-11-10T11:11:56.600Z,10.30
2023-11-10T11:14:46.232Z,10.34
2023-11-10T11:18:07.718Z,10.32
2023-11-10T11:20:43.186Z,10.08
2023-11-10T11:23:15.489Z,10.14
2023-11-10T11:25:50.640Z,9.97
2023-11-10T11:28:33.803Z,10.01
2023-11-10T11:31:14.426Z,9.84
2023-11-10T11:33:48.761Z,9.80
2023-11-10T11:36:23.283Z,9.73
2023-11-10T11:38:55.797Z,9.54
2023-11-10T11:41:30.212Z,9.62
2023-11-10T11:44:03.182Z,9.50
2023-11-10T11:46:37.164Z,9.48
2023-11-10T11:49:10.003Z,9.61
2023-11-10T11:54:16.557Z,9.36
2023-11-10T11:56:49.045Z,9.48
2023-11-10T11:59:20.736Z,9.50
2023-11-10T12:01:53.522Z,9.59
2023-11-10T12:04:28.224Z,9.60
2023-11-10T12:07:00.519Z,9.76
2023-11-10T12:09:32.629Z,9.91
2023-11-10T12:12:05.258Z,9.87
2023-11-10T12:14:38.288Z,10.06
2023-11-10T12:17:10.251Z,10.22
2023-11-10T12:19:42.422Z,10.10
2023-11-10T12:22:14.932Z,10.17
2023-11-10T12:24:49.690Z,10.44
2023-11-10T12:27:22.327Z,10.51
2023-11-10T12:29:54.797Z,10.66
2023-11-10T12:32:31.838Z,10.75
2023-11-10T12:35:06.703Z,10.73
2023-11-10T12:37:39.892Z,10.80
2023-11-10T12:40:19.223Z,10.66
2023-11-10T12:42:51.740Z,10.62
2023-11-10T12:45:25.315Z,10.66
2023-11-10T12:48:03.851Z,10.59
2023-11-10T12:50:39.856Z,10.54
2023-11-10T12:53:14.374Z,10.75
2023-11-10T12:55:48.140Z,10.95
2023-11-10T12:58:20.359Z,10.84
2023-11-10T13:00:52.290Z,10.81
2023-11-10T13:03:25.231Z,10.69
2023-11-10T13:05:57.783Z,10.68
2023-11-10T13:08:30.640Z,10.67
2023-11-10T13:11:02.453Z,10.59
2023-11-10T13:13:35.263Z,10.52
2023-11-10T13:16:10.755Z,10.32
2023-11-10T13:18:42.669Z,10.27
2023-11-10T13:21:14.497Z,10.24
2023-11-10T13:23:46.445Z,10.11
2023-11-10T13:26:23.234Z,10.16
2023-11-10T13:28:57.134Z,10.22
2023-11-10T13:31:31.969Z,10.12
2023-11-10T13:34:07.425Z,10.06
2023-11-10T13:36:39.822Z,9.83
2023-11-10T13:39:14.021Z,9.82
2023-11-10T13:41:49.357Z,9.85
2023-11-10T13:44:22.241Z,9.80
2023-11-10T13:46:54.311Z,9.83
2023-11-10T13:49:27.474Z,9.82
2023-11-10T13:51:59.468Z,9.78
2023-11-10T13:54:32.001Z,9.83
2023-11-10T13:57:04.483Z,9.87
2023-11-10T13:59:40.663Z,9.74
2023-11-10T14:02:12.657Z,9.75
2023-11-10T14:04:45.102Z,9.85
2023-11-10T14:07:17.111Z,9.74
2023-11-10T14:09:49.103Z,9.78
2023-11-10T14:12:20.831Z,9.75
2023-11-10T14:14:54.083Z,9.85
2023-11-10T14:17:26.524Z,9.88
2023-11-10T14:19:58.330Z,9.87
2023-11-10T14:22:30.579Z,9.70
2023-11-10T14:25:04.233Z,9.68
2023-11-10T14:27:36.296Z,9.56
2023-11-10T14:30:11.175Z,9.57
2023-11-10T14:32:44.549Z,9.39
2023-11-10T14:35:17.323Z,9.39
2023-11-10T14:37:48.940Z,9.36
2023-11-10T14:40:29.386Z,9.27
2023-11-10T14:43:03.667Z,9.29
2023-11-10T14:45:36.848Z,9.33
2023-11-10T14:48:14.256Z,9.25
2023-11-10T14:50:48.554Z,9.30
2023-11-10T14:53:26.304Z,9.31
2023-11-10T14:55:59.224Z,9.23
2023-11-10T14:58:31.202Z,9.24
2023-11-10T15:01:04.487Z,9.03
2023-11-10T15:03:36.252Z,9.03
2023-11-10T15:06:09.436Z,8.90
2023-11-10T15:08:41.160Z,8.89
2023-11-10T15:11:14.569Z,8.82
2023-11-10T15:13:47.308Z,8.80
2023-11-10T15:16:19.604Z,8.91
2023-11-10T15:18:51.863Z,8.88
2023-11-10T15:21:23.590Z,8.91
2023-11-10T15:23:55.463Z,9.00
2023-11-10T15:26:27.451Z,8.96
2023-11-10T15:28:59.126Z,8.85
2023-11-10T15:31:30.834Z,8.86
2023-11-10T15:34:03.659Z,8.91
2023-11-10T15:36:42.662Z,8.76
2023-11-10T15:39:16.082Z,8.81
2023-11-10T15:41:49.209Z,8.68
2023-11-10T15:44:20.917Z,8.67
2023-11-10T15:46:52.928Z,8.67
2023-11-10T15:49:24.904Z,8.65
2023-11-10T15:51:57.912Z,8.76
2023-11-10T15:54:29.943Z,8.68
2023-11-10T15:57:02.232Z,8.69
2023-11-10T15:59:34.124Z,8.75
2023-11-10T16:02:07.854Z,8.82
2023-11-10T16:04:39.892Z,8.74
2023-11-10T16:07:13.881Z,8.77
2023-11-10T16:09:46.585Z,8.71
2023-11-10T16:12:18.479Z,8.75
2023-11-10T16:14:51.726Z,8.73
2023-11-10T16:17:23.652Z,8.70
2023-11-10T16:19:55.515Z,8.85
2023-11-10T16:22:27.544Z,8.88
2023-11-10T16:24:59.865Z,8.88
2023-11-10T16:27:32.314Z,8.74
2023-11-10T16:30:04.728Z,8.67
2023-11-10T16:32:37.332Z,8.55
2023-11-10T16:35:11.129Z,8.66
2023-11-10T16:37:43.929Z,8.64
2023-11-10T16:40:16.790Z,8.62
2023-11-10T16:42:48.922Z,8.71
2023-11-10T16:45:20.993Z,8.77
2023-11-10T16:47:54.169Z,8.68
2023-11-10T16:50:26.018Z,8.70
2023-11-10T16:52:57.890Z,8.74
2023-11-10T16:55:29.918Z,8.75
2023-11-10T16:58:02.487Z,8.79
2023-11-10T17:00:40.320Z,8.59
2023-11-10T17:03:14.609Z,8.60
2023-11-10T17:05:51.202Z,8.57
2023-11-10T17:08:24.945Z,8.55
2023-11-10T17:10:56.734Z,8.62
2023-11-10T17:13:31.412Z,8.64
2023-11-10T17:16:03.786Z,8.60
2023-11-10T17:18:36.845Z,8.71
2023-11-10T17:21:08.955Z,8.63
2023-11-10T17:23:40.710Z,8.75
2023-11-10T17:26:14.938Z,8.66
2023-11-10T17:28:47.118Z,8.42
2023-11-10T17:31:18.974Z,8.36
2023-11-10T17:33:50.866Z,8.24
2023-11-10T17:36:22.646Z,8.26
2023-11-10T17:38:55.440Z,8.34
2023-11-10T17:41:27.426Z,8.38
2023-11-10T17:44:00.382Z,8.33
2023-11-10T17:46:32.333Z,8.36
2023-11-10T17:49:04.317Z,8.23
2023-11-10T17:51:36.869Z,8.29
2023-11-10T17:54:09.831Z,8.22
2023-11-10T17:56:41.435Z,8.25
2023-11-10T17:59:15.285Z,8.40
2023-11-10T18:01:47.217Z,8.40
2023-11-10T18:04:20.598Z,8.32
2023-11-10T18:06:52.856Z,8.38
2023-11-10T18:09:24.614Z,8.27
2023-11-10T18:11:56.428Z,8.46
2023-11-10T18:14:28.439Z,8.56
2023-11-10T18:17:00.266Z,8.47
2023-11-10T18:19:32.679Z,8.43
2023-11-10T18:22:04.901Z,8.38
2023-11-10T18:24:37.297Z,8.39
2023-11-10T18:27:09.114Z,8.51
2023-11-10T18:29:40.931Z,8.42
2023-11-10T18:32:13.971Z,8.47
2023-11-10T18:34:46.530Z,8.47
2023-11-10T18:37:18.220Z,8.35
2023-11-10T18:39:51.679Z,8.40
2023-11-10T18:42:25.530Z,8.34
2023-11-10T18:44:57.328Z,8.36
2023-11-10T18:47:29.183Z,8.45
2023-11-10T18:50:01.094Z,8.32
2023-11-10T18:52:33.619Z,8.38
2023-11-10T18:55:07.383Z,8.41
2023-11-10T18:57:39.201Z,8.25
2023-11-10T19:00:14.419Z,8.33
2023-11-10T19:02:45.052Z,8.31
2023-11-10T19:05:17.098Z,8.31
2023-11-10T19:07:48.722Z,8.45
2023-11-10T19:10:22.060Z,8.52
2023-11-10T19:12:54.002Z,8.46
2023-11-10T19:15:25.696Z,8.52
2023-11-10T19:17:57.336Z,8.39
2023-11-10T19:20:29.342Z,8.45
2023-11-10T19:23:02.123Z,8.42
2023-11-10T19:25:33.745Z,8.34
2023-11-10T19:28:07.028Z,8.41
2023-11-10T19:30:38.795Z,8.30
2023-11-10T19:33:12.223Z,8.35
2023-11-10T19:35:44.068Z,8.41
2023-11-10T19:38:15.665Z,8.46
2023-11-10T19:40:47.960Z,8.53
2023-11-10T19:43:19.708Z,8.59
2023-11-10T19:45:51.552Z,8.43
2023-11-10T19:48:23.393Z,8.51
2023-11-10T19:50:55.305Z,8.51
2023-11-10T19:53:27.279Z,8.47
2023-11-10T19:55:59.030Z,8.43
2023-11-10T20:01:05.963Z,8.48
2023-11-10T20:03:37.656Z,8.40
2023-11-10T20:06:11.788Z,8.40
2023-11-10T20:08:44.052Z,8.40
2023-11-10T20:11:20.408Z,8.29
2023-11-10T20:13:52.767Z,8.32
2023-11-10T20:16:26.674Z,8.42
2023-11-10T20:18:58.649Z,8.34
2023-11-10T20:21:31.099Z,8.29
2023-11-10T20:24:03.213Z,8.35
2023-11-10T20:26:35.251Z,8.30
2023-11-10T20:29:07.420Z,8.36
2023-11-10T20:31:40.549Z,8.28
2023-11-10T20:34:12.878Z,8.28
2023-11-10T20:36:45.468Z,8.36
2023-11-10T20:39:17.276Z,8.33
2023-11-10T20:41:49.321Z,8.26
2023-11-10T20:44:21.303Z,8.31
2023-11-10T20:46:53.709Z,8.20
2023-11-10T20:49:25.432Z,8.21
2023-11-10T20:51:58.448Z,8.36
2023-11-10T20:54:31.202Z,8.30
2023-11-10T20:57:03.941Z,8.28
2023-11-10T20:59:35.841Z,8.23
2023-11-10T21:02:07.749Z,8.13
2023-11-10T21:04:40.247Z,8.12
2023-11-10T21:07:12.916Z,8.10
2023-11-10T21:09:45.199Z,8.09
2023-11-10T21:12:17.439Z,8.11
2023-11-10T21:14:49.348Z,8.06
2023-11-10T21:17:21.828Z,8.21
2023-11-10T21:19:53.860Z,8.12
2023-11-10T21:22:27.736Z,8.07
2023-11-10T21:25:00.058Z,8.17
2023-11-10T21:27:32.120Z,8.07
2023-11-10T21:30:05.967Z,8.05
2023-11-10T21:32:40.058Z,8.13
2023-11-10T21:35:13.675Z,8.00
2023-11-10T21:37:45.501Z,8.08
2023-11-10T21:40:22.489Z,7.97
2023-11-10T21:42:55.739Z,7.97
2023-11-10T21:45:27.513Z,8.10
2023-11-10T21:48:00.326Z,8.06
2023-11-10T21:50:32.171Z,8.18
2023-11-10T21:53:04.218Z,8.16
2023-11-10T21:55:36.211Z,8.18
2023-11-10T21:58:08.764Z,8.08
2023-11-10T22:00:40.459Z,8.14
2023-11-10T22:03:12.486Z,8.10
2023-11-10T22:05:44.340Z,8.12
2023-11-10T22:08:15.970Z,8.05
2023-11-10T22:10:47.957Z,8.04
2023-11-10T22:13:21.193Z,8.10
2023-11-10T22:15:52.779Z,8.17
2023-11-10T22:18:27.319Z,8.02
2023-11-10T22:20:59.407Z,8.05
2023-11-10T22:23:31.567Z,7.97
2023-11-10T22:26:03.422Z,8.01
2023-11-10T22:28:35.233Z,8.06
2023-11-10T22:31:07.231Z,8.07
2023-11-10T22:33:39.494Z,7.98
2023-11-10T22:36:11.940Z,8.10
2023-11-10T22:38:44.853Z,8.20
2023-11-10T22:41:16.686Z,8.15
2023-11-10T22:43:48.534Z,8.21
2023-11-10T22:46:21.251Z,8.23
2023-11-10T22:48:53.006Z,8.04
2023-11-10T22:51:25.658Z,7.99
2023-11-10T22:53:58.239Z,7.98
2023-11-10T22:56:30.016Z,7.92
2023-11-10T22:59:01.688Z,8.06
2023-11-10T23:01:33.373Z,7.93
2023-11-10T23:04:07.182Z,8.01
2023-11-10T23:06:39.025Z,7.97
2023-11-10T23:09:13.052Z,7.90
2023-11-10T23:11:44.848Z,7.96
2023-11-10T23:14:16.492Z,7.89
2023-11-10T23:16:48.514Z,8.01
2023-11-10T23:19:20.929Z,8.10
2023-11-10T23:21:53.915Z,8.04
2023-11-10T23:24:26.039Z,8.14
2023-11-10T23:26:58.006Z,7.97
2023-11-10T23:29:29.567Z,8.03
2023-11-10T23:32:01.490Z,8.21
2023-11-10T23:34:33.987Z,8.21
2023-11-10T23:37:07.060Z,8.13
2023-11-10T23:39:38.957Z,8.19
2023-11-10T23:42:10.722Z,8.13
2023-11-10T23:44:42.943Z,8.21
2023-11-10T23:47:15.074Z,8.26
2023-11-10T23:49:46.940Z,8.34
2023-11-10T23:52:18.650Z,8.43
2023-11-10T23:54:50.694Z,8.35
2023-11-10T23:57:22.444Z,8.25
2023-11-10T23:59:54.517Z,8.17
